Bahías de Huatulco International Airport
MMBT : now visible

Airfield :











YOU CAN JOIN US ON...

 
LOGIN :

Register | Disclaimer

   EN    FR    IT 

 









Legend :    VFR   Marginal VFR   IFR   Intensive IFR   Very Intensive IFR
Visi :
Ceiling :
>= 8 km
>= 3000ft
5 to 8 km
1000 to 3000 ft
1500m to 5 km
500 to 1000 ft
800 to 1500m
200 to 500 ft
< 800m
< 200 ft
Symbols :   Thunderstorms  Fog  Heavy snow  Heavy precipitations  Wind > 20 kt






- Airport Elevation : 464 ft
- IATA code : HUX


MMBT - Bahías de Huatulco International

CURRENT METAR :
  • 230144Z 00000KT 8SM SCT100 29/24 A2984 RMK 8/010

EXPIRED METARs :
  • 230040Z 00000KT 8SM BKN150 30/24 A2982 RMK 8/070
  • 222344Z 00000KT 8SM SCT200 31/24 A2979 RMK 8/001
  • 222257Z RTD 00000KT 8SM SCT150 30/24 A2979 RMK 8/010
  • 222140Z 10008KT 8SM SCT030 SCT150 31/24 A2979 RMK 8/420

TAF TAF MMBT
Valid from the 22 at 18:00 until the 23 at 18:00 UTC


221738Z 2218/2318 19010KT P6SM SCT030 SCT220
TEMPO 2222/2302 TS BKN025CB
FM230200 30005KT P6SM SCT030 SCT100
FM230900 00000KT P6SM SCT030 SCT220
FM231500 08006KT P6SM SCT030 BKN220
MMFR FIR / North America



MET'MAP, your aeronautical weather chart ! - Copyright ORBIFLY December 2007 - Disclaimer

ORBIFLY MET'MAP TEAM :

Programming & Development : Alexandra Zaïnal
Original concept : Baudouin d'Aumeries
Technical & hardware support : Manuel Goepfert
Assistance : Marc-Olivier Méhu




SOURCES & CREDITS :

   NOAA       Earth
Advisory